createdAt,value
2018-03-03T00:01:27.809Z,47.03
2018-03-03T00:03:55.476Z,43.07
2018-03-03T00:06:23.174Z,40.87
2018-03-03T00:08:50.847Z,49.27
2018-03-03T00:11:18.515Z,48.53
2018-03-03T00:13:46.190Z,43.10
2018-03-03T00:16:13.784Z,45.50
2018-03-03T00:18:41.425Z,48.23
2018-03-03T00:21:09.083Z,41.77
2018-03-03T00:23:36.757Z,48.17
2018-03-03T00:26:08.382Z,46.53
2018-03-03T00:28:36.073Z,43.13
2018-03-03T00:31:03.743Z,45.03
2018-03-03T00:33:31.446Z,49.87
2018-03-03T00:35:59.129Z,44.73
2018-03-03T00:38:26.825Z,44.87
2018-03-03T00:40:54.499Z,58.10
2018-03-03T00:43:22.168Z,45.87
2018-03-03T00:45:49.841Z,45.60
2018-03-03T00:48:18.278Z,44.00
2018-03-03T00:50:45.952Z,47.10
2018-03-03T00:53:13.660Z,45.33
2018-03-03T00:55:42.480Z,49.30
2018-03-03T00:58:10.145Z,53.13
2018-03-03T01:00:37.826Z,49.20
2018-03-03T01:03:05.517Z,53.93
2018-03-03T01:05:33.208Z,45.00
2018-03-03T01:08:00.887Z,50.70
2018-03-03T01:10:28.548Z,49.23
2018-03-03T01:12:56.212Z,45.83
2018-03-03T01:15:23.853Z,48.67
2018-03-03T01:17:51.525Z,51.77
2018-03-03T01:20:19.168Z,48.77
2018-03-03T01:22:47.583Z,53.47
2018-03-03T01:25:15.382Z,50.33
2018-03-03T01:27:43.031Z,44.70
2018-03-03T01:30:10.693Z,52.70
2018-03-03T01:32:38.353Z,51.50
2018-03-03T01:35:06.010Z,55.73
2018-03-03T01:37:33.668Z,52.07
2018-03-03T01:40:01.312Z,52.50
2018-03-03T01:42:28.952Z,48.97
2018-03-03T01:44:56.606Z,54.53
2018-03-03T01:47:24.260Z,56.63
2018-03-03T01:49:51.927Z,54.40
2018-03-03T01:52:19.579Z,52.13
2018-03-03T01:54:47.303Z,52.60
2018-03-03T01:57:14.969Z,47.73
2018-03-03T01:59:42.677Z,50.30
2018-03-03T02:02:10.388Z,52.40
2018-03-03T02:04:37.995Z,58.30
2018-03-03T02:07:05.588Z,54.27
2018-03-03T02:09:33.259Z,54.40
2018-03-03T02:12:00.898Z,55.07
2018-03-03T02:14:28.559Z,52.83
2018-03-03T02:16:56.225Z,50.73
2018-03-03T02:19:24.638Z,57.07
2018-03-03T02:21:52.276Z,55.80
2018-03-03T02:24:19.927Z,52.10
2018-03-03T02:26:47.601Z,51.43
2018-03-03T02:29:16.063Z,50.27
2018-03-03T02:31:43.719Z,49.97
2018-03-03T02:34:11.392Z,54.27
2018-03-03T02:36:39.055Z,56.53
2018-03-03T02:39:06.715Z,52.67
2018-03-03T02:41:34.365Z,55.37
2018-03-03T02:44:02.735Z,52.00
2018-03-03T02:46:31.603Z,54.50
2018-03-03T02:48:59.297Z,51.07
2018-03-03T02:51:26.958Z,52.23
2018-03-03T02:53:54.631Z,57.00
2018-03-03T02:56:22.239Z,50.63
2018-03-03T02:58:49.930Z,53.73
2018-03-03T03:01:17.623Z,55.37
2018-03-03T03:03:45.274Z,53.00
2018-03-03T03:06:12.953Z,53.73
2018-03-03T03:08:40.592Z,55.43
2018-03-03T03:11:08.254Z,56.17
2018-03-03T03:13:35.956Z,55.37
2018-03-03T03:16:05.731Z,53.13
2018-03-03T03:18:33.376Z,49.40
2018-03-03T03:21:01.053Z,48.23
2018-03-03T03:23:28.749Z,55.47
2018-03-03T03:25:56.425Z,54.60
2018-03-03T03:28:24.898Z,55.63
2018-03-03T03:30:52.529Z,51.13
2018-03-03T03:33:20.207Z,58.97
2018-03-03T03:35:47.864Z,54.63
2018-03-03T03:38:15.530Z,54.57
2018-03-03T03:40:43.173Z,57.30
2018-03-03T03:43:10.839Z,56.13
2018-03-03T03:45:38.611Z,57.23
2018-03-03T03:48:06.267Z,58.53
2018-03-03T03:50:33.937Z,55.73
2018-03-03T03:53:01.598Z,55.17
2018-03-03T03:55:29.240Z,59.57
2018-03-03T03:57:57.609Z,50.63
2018-03-03T04:00:25.248Z,60.50
2018-03-03T04:02:52.897Z,56.57
2018-03-03T04:05:20.569Z,63.00
2018-03-03T04:07:49.040Z,53.23
2018-03-03T04:10:16.695Z,57.93
2018-03-03T04:12:44.344Z,57.93
2018-03-03T04:15:12.084Z,55.83
2018-03-03T04:17:39.744Z,56.10
2018-03-03T04:20:07.446Z,57.00
2018-03-03T04:22:35.115Z,58.83
2018-03-03T04:25:02.796Z,57.90
2018-03-03T04:27:31.274Z,53.00
2018-03-03T04:29:58.956Z,62.57
2018-03-03T04:32:27.429Z,54.17
2018-03-03T04:34:55.108Z,57.57
2018-03-03T04:37:22.819Z,52.63
2018-03-03T04:39:50.457Z,56.87
2018-03-03T04:42:18.119Z,57.37
2018-03-03T04:44:45.886Z,55.40
2018-03-03T04:47:13.575Z,54.73
2018-03-03T04:49:41.240Z,55.27
2018-03-03T04:52:08.929Z,51.63
2018-03-03T04:54:36.641Z,55.90
2018-03-03T04:57:04.364Z,55.87
2018-03-03T04:59:32.830Z,57.27
2018-03-03T05:05:20.672Z,53.37
2018-03-03T05:07:55.834Z,53.50
2018-03-03T05:10:25.286Z,55.30
2018-03-03T05:12:54.835Z,54.83
2018-03-03T05:15:22.495Z,54.73
2018-03-03T05:18:05.882Z,57.83
2018-03-03T05:20:53.103Z,52.70
2018-03-03T05:23:37.456Z,54.07
2018-03-03T05:26:10.574Z,52.60
2018-03-03T05:28:54.012Z,51.13
2018-03-03T05:31:27.314Z,56.10
2018-03-03T05:37:00.990Z,52.33
2018-03-03T05:39:47.257Z,56.90
2018-03-03T05:42:20.540Z,55.07
2018-03-03T05:44:53.700Z,48.43
2018-03-03T05:47:41.146Z,56.13
2018-03-03T05:50:24.584Z,57.37
2018-03-03T05:53:07.986Z,52.20
2018-03-03T05:55:41.211Z,51.13
2018-03-03T05:58:14.494Z,54.27
2018-03-03T06:00:47.730Z,51.57
2018-03-03T06:03:22.920Z,50.90
2018-03-03T06:05:52.513Z,51.40
2018-03-03T06:08:22.653Z,50.37
2018-03-03T06:10:51.859Z,54.23
2018-03-03T06:13:19.513Z,54.30
2018-03-03T06:15:47.177Z,57.40
2018-03-03T06:18:14.826Z,49.07
2018-03-03T06:20:42.509Z,53.00
2018-03-03T06:23:10.186Z,53.47
2018-03-03T06:25:37.833Z,49.20
2018-03-03T06:28:05.506Z,51.70
2018-03-03T06:30:33.177Z,49.97
2018-03-03T06:33:00.827Z,47.97
2018-03-03T06:35:28.571Z,54.13
2018-03-03T06:37:56.245Z,56.03
2018-03-03T06:40:23.911Z,57.37
2018-03-03T06:42:51.548Z,55.63
2018-03-03T06:45:19.196Z,48.83
2018-03-03T06:47:46.869Z,50.90
2018-03-03T06:50:14.543Z,58.23
2018-03-03T06:52:42.174Z,55.90
2018-03-03T06:55:09.828Z,50.50
2018-03-03T06:57:37.478Z,53.87
2018-03-03T07:00:05.159Z,57.37
2018-03-03T07:02:32.824Z,57.93
2018-03-03T07:05:08.496Z,49.50
2018-03-03T07:07:36.138Z,50.57
2018-03-03T07:10:03.842Z,56.23
2018-03-03T07:12:31.534Z,51.47
2018-03-03T07:15:00.077Z,50.90
2018-03-03T07:17:27.738Z,49.33
2018-03-03T07:19:55.382Z,52.83
2018-03-03T07:22:23.812Z,47.63
2018-03-03T07:24:51.502Z,45.93
2018-03-03T07:27:19.145Z,48.27
2018-03-03T07:29:46.799Z,47.50
2018-03-03T07:32:14.434Z,51.83
2018-03-03T07:34:45.705Z,51.63
2018-03-03T07:37:13.313Z,50.73
2018-03-03T07:39:41.755Z,43.97
2018-03-03T07:42:09.399Z,48.80
2018-03-03T07:44:37.065Z,48.43
2018-03-03T07:47:04.697Z,49.10
2018-03-03T07:49:32.356Z,52.80
2018-03-03T07:52:00.039Z,48.13
2018-03-03T07:54:27.700Z,53.03
2018-03-03T07:57:06.946Z,44.47
2018-03-03T07:59:34.625Z,52.03
2018-03-03T08:02:02.286Z,50.17
2018-03-03T08:04:30.589Z,49.10
2018-03-03T08:06:58.327Z,55.83
2018-03-03T08:09:26.022Z,50.00
2018-03-03T08:11:53.671Z,54.50
2018-03-03T08:14:21.295Z,51.57
2018-03-03T08:16:48.962Z,52.87
2018-03-03T08:19:16.614Z,51.43
2018-03-03T08:21:44.258Z,52.67
2018-03-03T08:24:12.692Z,52.80
2018-03-03T08:26:40.353Z,52.43
2018-03-03T08:29:08.018Z,47.50
2018-03-03T08:31:35.710Z,54.07
2018-03-03T08:34:03.361Z,45.97
2018-03-03T08:36:31.028Z,50.97
2018-03-03T08:38:58.707Z,47.33
2018-03-03T08:41:26.393Z,48.77
2018-03-03T08:43:54.088Z,52.70
2018-03-03T08:46:22.614Z,50.13
2018-03-03T08:48:50.347Z,47.10
2018-03-03T08:51:18.142Z,49.50
2018-03-03T08:53:45.882Z,45.50
2018-03-03T08:56:13.556Z,52.77
2018-03-03T08:58:41.248Z,53.60
2018-03-03T09:01:08.892Z,51.83
2018-03-03T09:03:36.522Z,51.57
2018-03-03T09:06:04.184Z,52.93
2018-03-03T09:08:31.864Z,51.37
2018-03-03T09:10:59.452Z,56.73
2018-03-03T09:13:27.140Z,56.83
2018-03-03T09:15:55.774Z,51.67
2018-03-03T09:18:23.434Z,51.50
2018-03-03T09:20:51.091Z,53.43
2018-03-03T09:23:18.775Z,57.20
2018-03-03T09:25:46.446Z,48.73
2018-03-03T09:28:14.030Z,55.03
2018-03-03T09:30:41.718Z,51.30
2018-03-03T09:33:09.374Z,58.30
2018-03-03T09:35:37.024Z,49.00
2018-03-03T09:38:04.675Z,50.80
2018-03-03T09:40:33.110Z,49.87
2018-03-03T09:43:00.762Z,53.77
2018-03-03T09:45:29.223Z,46.87
2018-03-03T09:47:56.892Z,52.00
2018-03-03T09:50:24.544Z,53.83
2018-03-03T09:52:52.229Z,51.00
2018-03-03T09:55:19.893Z,54.00
2018-03-03T09:57:47.560Z,48.77
2018-03-03T10:00:15.219Z,52.20
2018-03-03T10:02:42.852Z,52.03
2018-03-03T10:05:11.262Z,54.17
2018-03-03T10:07:38.913Z,52.43
2018-03-03T10:10:06.598Z,56.20
2018-03-03T10:12:34.270Z,55.10
2018-03-03T10:15:05.521Z,55.73
2018-03-03T10:17:33.203Z,55.10
2018-03-03T10:20:00.848Z,53.57
2018-03-03T10:22:28.523Z,54.83
2018-03-03T10:24:56.144Z,51.20
2018-03-03T10:27:23.875Z,50.93
2018-03-03T10:29:51.514Z,51.70
2018-03-03T10:32:19.208Z,52.50
2018-03-03T10:34:47.609Z,54.60
2018-03-03T10:37:15.277Z,51.73
2018-03-03T10:39:42.923Z,51.23
2018-03-03T10:42:10.604Z,58.47
2018-03-03T10:44:38.419Z,52.67
2018-03-03T10:47:06.084Z,53.27
2018-03-03T10:49:33.755Z,53.83
2018-03-03T10:52:01.403Z,50.57
2018-03-03T10:54:29.077Z,54.17
2018-03-03T10:56:56.738Z,51.33
2018-03-03T10:59:24.403Z,55.90
2018-03-03T11:01:52.041Z,51.17
2018-03-03T11:04:19.621Z,54.30
2018-03-03T11:06:47.195Z,52.17
2018-03-03T11:09:15.644Z,54.67
2018-03-03T11:11:43.296Z,54.57
2018-03-03T11:14:10.924Z,53.53
2018-03-03T11:16:38.551Z,58.60
2018-03-03T11:19:06.218Z,56.03
2018-03-03T11:21:33.882Z,54.60
2018-03-03T11:24:01.528Z,53.13
2018-03-03T11:26:29.184Z,53.40
2018-03-03T11:28:56.841Z,55.57
2018-03-03T11:31:24.489Z,55.80
2018-03-03T11:33:52.165Z,50.00
2018-03-03T11:36:20.143Z,54.37
2018-03-03T11:38:47.796Z,53.37
2018-03-03T11:41:15.601Z,51.97
2018-03-03T11:43:43.255Z,50.40
2018-03-03T11:46:10.930Z,54.70
2018-03-03T11:48:39.405Z,49.87
2018-03-03T11:51:07.059Z,52.90
2018-03-03T11:53:34.712Z,49.03
2018-03-03T11:56:02.383Z,50.43
2018-03-03T11:58:30.040Z,55.27
2018-03-03T12:00:57.788Z,49.73
2018-03-03T12:03:25.427Z,53.60
2018-03-03T12:06:01.355Z,52.80
2018-03-03T12:08:29.824Z,55.73
2018-03-03T12:10:57.487Z,51.47
2018-03-03T12:13:25.149Z,52.17
2018-03-03T12:15:52.778Z,49.33
2018-03-03T12:18:20.445Z,50.63
2018-03-03T12:20:48.095Z,51.77
2018-03-03T12:23:15.736Z,52.83
2018-03-03T12:25:43.411Z,53.87
2018-03-03T12:28:11.093Z,49.43
2018-03-03T12:30:38.741Z,48.93
2018-03-03T12:33:06.797Z,52.80
2018-03-03T12:35:34.607Z,49.03
2018-03-03T12:38:02.266Z,48.50
2018-03-03T12:40:29.897Z,55.47
2018-03-03T12:42:57.555Z,53.50
2018-03-03T12:45:25.228Z,53.60
2018-03-03T12:47:52.920Z,51.43
2018-03-03T12:50:20.588Z,51.60
2018-03-03T12:52:48.194Z,51.17
2018-03-03T12:55:15.986Z,55.80
2018-03-03T12:57:43.625Z,54.23
2018-03-03T13:00:11.293Z,51.47
2018-03-03T13:02:38.932Z,54.07
2018-03-03T13:05:07.451Z,53.37
2018-03-03T13:07:35.080Z,52.77
2018-03-03T13:10:03.581Z,51.70
2018-03-03T13:12:32.039Z,54.43
2018-03-03T13:14:59.695Z,54.63
2018-03-03T13:17:27.352Z,51.27
2018-03-03T13:19:55.032Z,50.87
2018-03-03T13:22:22.692Z,58.57
2018-03-03T13:24:50.362Z,56.17
2018-03-03T13:27:17.999Z,57.30
2018-03-03T13:29:45.676Z,52.57
2018-03-03T13:32:13.333Z,55.77
2018-03-03T13:34:53.767Z,56.97
2018-03-03T13:37:21.405Z,52.97
2018-03-03T13:39:49.056Z,55.40
2018-03-03T13:42:16.707Z,54.77
2018-03-03T13:44:44.375Z,50.33
2018-03-03T13:47:12.786Z,57.67
2018-03-03T13:49:40.468Z,59.67
2018-03-03T13:52:08.092Z,53.17
2018-03-03T13:54:35.801Z,59.37
2018-03-03T13:57:03.463Z,58.23
2018-03-03T13:59:31.130Z,53.20
2018-03-03T14:01:58.805Z,56.23
2018-03-03T14:04:30.438Z,53.37
2018-03-03T14:06:58.135Z,54.60
2018-03-03T14:09:25.776Z,55.87
2018-03-03T14:11:53.444Z,58.07
2018-03-03T14:14:21.037Z,58.50
2018-03-03T14:16:49.479Z,55.20
2018-03-03T14:19:17.127Z,53.87
2018-03-03T14:21:44.814Z,55.27
2018-03-03T14:24:12.496Z,57.73
2018-03-03T14:26:40.329Z,54.20
2018-03-03T14:29:07.996Z,58.10
2018-03-03T14:31:35.646Z,54.97
2018-03-03T14:34:03.309Z,58.07
2018-03-03T14:36:30.998Z,60.80
2018-03-03T14:38:58.652Z,56.70
2018-03-03T14:41:26.314Z,59.00
2018-03-03T14:43:53.981Z,63.10
2018-03-03T14:46:21.632Z,62.63
2018-03-03T14:48:49.322Z,57.97
2018-03-03T14:51:17.131Z,56.83
2018-03-03T14:53:44.842Z,58.50
2018-03-03T14:56:12.585Z,62.40
2018-03-03T14:58:40.262Z,60.40
2018-03-03T15:01:07.940Z,58.37
2018-03-03T15:03:35.639Z,63.90
2018-03-03T15:06:03.301Z,62.33
2018-03-03T15:08:30.998Z,56.07
2018-03-03T15:10:58.652Z,58.97
2018-03-03T15:13:26.348Z,55.93
2018-03-03T15:15:54.012Z,65.00
2018-03-03T15:18:21.696Z,54.87
2018-03-03T15:20:50.118Z,60.27
2018-03-03T15:23:18.533Z,53.77
2018-03-03T15:25:47.314Z,57.33
2018-03-03T15:28:15.006Z,56.33
2018-03-03T15:30:42.649Z,59.23
2018-03-03T15:33:10.312Z,61.57
2018-03-03T15:35:37.945Z,57.87
2018-03-03T15:38:06.388Z,61.63
2018-03-03T15:40:34.786Z,60.20
2018-03-03T15:43:02.481Z,56.50
2018-03-03T15:45:30.163Z,55.33
2018-03-03T15:47:58.132Z,57.60
2018-03-03T15:50:25.816Z,57.37
2018-03-03T15:52:53.496Z,63.20
2018-03-03T15:55:22.308Z,58.03
2018-03-03T15:57:49.938Z,59.30
2018-03-03T16:00:17.584Z,59.17
2018-03-03T16:02:45.268Z,64.30
2018-03-03T16:05:17.403Z,58.83
2018-03-03T16:07:45.066Z,53.10
2018-03-03T16:10:12.714Z,57.40
2018-03-03T16:12:40.870Z,57.87
2018-03-03T16:15:13.032Z,57.23
2018-03-03T16:17:40.711Z,55.60
2018-03-03T16:20:08.389Z,57.50
2018-03-03T16:22:36.048Z,58.37
2018-03-03T16:25:03.747Z,57.80
2018-03-03T16:27:31.418Z,58.77
2018-03-03T16:29:59.078Z,60.50
2018-03-03T16:32:26.746Z,60.67
2018-03-03T16:34:55.173Z,61.93
2018-03-03T16:37:22.813Z,55.77
2018-03-03T16:39:50.507Z,58.07
2018-03-03T16:42:18.140Z,54.97
2018-03-03T16:44:45.854Z,56.00
2018-03-03T16:47:13.525Z,58.00
2018-03-03T16:49:41.256Z,55.33
2018-03-03T16:52:08.941Z,56.77
2018-03-03T16:54:36.594Z,57.87
2018-03-03T16:57:04.264Z,56.03
2018-03-03T16:59:31.942Z,55.97
2018-03-03T17:01:59.600Z,56.63
2018-03-03T17:04:27.271Z,56.30
2018-03-03T17:06:54.898Z,56.97
2018-03-03T17:09:22.558Z,52.33
2018-03-03T17:11:50.235Z,54.63
2018-03-03T17:14:17.881Z,57.17
2018-03-03T17:16:45.560Z,51.77
2018-03-03T17:19:13.222Z,54.20
2018-03-03T17:21:40.872Z,56.70
2018-03-03T17:24:08.555Z,51.67
2018-03-03T17:26:36.236Z,50.70
2018-03-03T17:29:03.902Z,58.20
2018-03-03T17:31:31.568Z,58.57
2018-03-03T17:33:59.261Z,57.47
2018-03-03T17:36:27.143Z,56.73
2018-03-03T17:38:54.830Z,53.93
2018-03-03T17:41:22.519Z,61.77
2018-03-03T17:43:50.164Z,56.00
2018-03-03T17:46:17.966Z,60.17
2018-03-03T17:48:46.416Z,55.33
2018-03-03T17:51:14.089Z,54.47
2018-03-03T17:53:41.798Z,54.37
2018-03-03T17:56:10.254Z,63.13
2018-03-03T17:58:37.900Z,59.00
2018-03-03T18:01:05.576Z,61.23
2018-03-03T18:03:33.218Z,63.13
2018-03-03T18:06:00.978Z,56.03
2018-03-03T18:08:28.648Z,60.17
2018-03-03T18:10:56.303Z,59.83
2018-03-03T18:13:32.511Z,60.07
2018-03-03T18:16:00.958Z,57.70
2018-03-03T18:18:30.400Z,57.57
2018-03-03T18:20:58.098Z,59.93
2018-03-03T18:23:25.753Z,60.47
2018-03-03T18:25:53.549Z,57.80
2018-03-03T18:28:21.208Z,59.90
2018-03-03T18:30:48.886Z,60.20
2018-03-03T18:33:16.554Z,61.93
2018-03-03T18:35:44.228Z,58.07
2018-03-03T18:38:11.887Z,64.47
2018-03-03T18:40:39.527Z,62.83
2018-03-03T18:43:07.162Z,56.70
2018-03-03T18:45:34.834Z,59.10
2018-03-03T18:48:02.478Z,63.53
2018-03-03T18:50:30.136Z,63.50
2018-03-03T18:52:57.787Z,58.67
2018-03-03T18:55:26.389Z,64.17
2018-03-03T18:57:54.048Z,62.70
2018-03-03T19:00:21.731Z,61.97
2018-03-03T19:02:49.388Z,65.53
2018-03-03T19:05:17.736Z,67.13
2018-03-03T19:07:46.119Z,62.63
2018-03-03T19:10:14.556Z,61.83
2018-03-03T19:12:42.188Z,67.73
2018-03-03T19:15:09.844Z,56.43
2018-03-03T19:17:37.491Z,62.07
2018-03-03T19:20:05.943Z,62.93
2018-03-03T19:22:33.592Z,68.20
2018-03-03T19:25:02.356Z,62.50
2018-03-03T19:27:29.995Z,66.90
2018-03-03T19:29:57.659Z,60.93
2018-03-03T19:32:25.331Z,63.93
2018-03-03T19:34:52.986Z,67.47
2018-03-03T19:37:20.628Z,61.77
2018-03-03T19:39:48.288Z,62.37
2018-03-03T19:42:16.735Z,61.33
2018-03-03T19:44:44.387Z,60.50
2018-03-03T19:47:12.059Z,63.47
2018-03-03T19:49:39.691Z,64.20
2018-03-03T19:52:07.340Z,60.20
2018-03-03T19:54:35.859Z,57.90
2018-03-03T19:57:03.520Z,68.63
2018-03-03T19:59:31.197Z,65.13
2018-03-03T20:01:58.854Z,59.57
2018-03-03T20:04:26.505Z,68.13
2018-03-03T20:06:54.160Z,68.50
2018-03-03T20:09:21.844Z,67.27
2018-03-03T20:11:49.515Z,68.47
2018-03-03T20:14:17.164Z,64.13
2018-03-03T20:16:44.833Z,69.00
2018-03-03T20:19:12.494Z,62.67
2018-03-03T20:21:40.152Z,68.57
2018-03-03T20:24:07.815Z,61.67
2018-03-03T20:26:35.462Z,65.47
2018-03-03T20:29:03.132Z,62.40
2018-03-03T20:31:30.785Z,62.03
2018-03-03T20:33:58.464Z,66.57
2018-03-03T20:36:26.118Z,65.10
2018-03-03T20:38:53.784Z,62.10
2018-03-03T20:41:21.480Z,63.60
2018-03-03T20:43:49.134Z,64.40
2018-03-03T20:46:18.010Z,57.97
2018-03-03T20:48:45.663Z,62.23
2018-03-03T20:51:13.357Z,58.33
2018-03-03T20:53:41.025Z,65.90
2018-03-03T20:56:08.697Z,54.80
2018-03-03T20:58:36.353Z,58.43
2018-03-03T21:01:04.055Z,68.43
2018-03-03T21:03:31.716Z,69.77
2018-03-03T21:06:00.152Z,75.37
2018-03-03T21:08:27.835Z,77.93
2018-03-03T21:10:55.531Z,80.57
2018-03-03T21:13:23.218Z,79.73
2018-03-03T21:16:00.363Z,72.93
2018-03-03T21:18:28.796Z,70.13
2018-03-03T21:20:56.451Z,75.90
2018-03-03T21:23:24.133Z,78.83
2018-03-03T21:25:51.816Z,75.20
2018-03-03T21:28:19.456Z,71.57
2018-03-03T21:30:47.123Z,68.10
2018-03-03T21:33:14.784Z,65.17
2018-03-03T21:35:42.435Z,63.33
2018-03-03T21:38:10.083Z,66.80
2018-03-03T21:40:37.739Z,62.63
2018-03-03T21:43:05.382Z,67.20
2018-03-03T21:45:46.129Z,65.43
2018-03-03T21:48:13.779Z,62.43
2018-03-03T21:50:41.448Z,64.03
2018-03-03T21:53:09.125Z,64.30
2018-03-03T21:55:37.555Z,63.23
2018-03-03T21:58:05.206Z,61.07
2018-03-03T22:00:32.870Z,63.63
2018-03-03T22:03:00.545Z,64.47
2018-03-03T22:05:28.188Z,63.17
2018-03-03T22:07:55.896Z,61.53
2018-03-03T22:10:23.537Z,58.97
2018-03-03T22:12:51.184Z,57.37
2018-03-03T22:15:20.011Z,57.37
2018-03-03T22:17:47.670Z,63.87
2018-03-03T22:20:15.361Z,65.30
2018-03-03T22:22:43.774Z,62.23
2018-03-03T22:25:11.473Z,59.30
2018-03-03T22:27:39.194Z,59.80
2018-03-03T22:30:06.829Z,60.20
2018-03-03T22:32:34.485Z,56.80
2018-03-03T22:35:02.147Z,59.83
2018-03-03T22:37:29.814Z,58.10
2018-03-03T22:39:57.485Z,60.47
2018-03-03T22:42:25.114Z,59.20
2018-03-03T22:44:52.878Z,58.23
2018-03-03T22:47:20.569Z,59.23
2018-03-03T22:49:48.249Z,59.17
2018-03-03T22:52:15.902Z,61.97
2018-03-03T22:54:43.576Z,64.00
2018-03-03T22:57:12.043Z,61.17
2018-03-03T22:59:39.695Z,57.30
2018-03-03T23:02:07.380Z,59.13
2018-03-03T23:04:35.013Z,59.10
2018-03-03T23:07:02.688Z,62.10
2018-03-03T23:09:30.341Z,60.50
2018-03-03T23:11:58.008Z,56.57
2018-03-03T23:14:25.698Z,55.10
2018-03-03T23:16:54.120Z,59.50
2018-03-03T23:19:21.809Z,62.10
2018-03-03T23:21:49.493Z,58.93
2018-03-03T23:24:17.154Z,60.77
2018-03-03T23:26:44.806Z,61.23
2018-03-03T23:29:12.454Z,58.50
2018-03-03T23:31:40.123Z,58.93
2018-03-03T23:34:07.782Z,63.53
2018-03-03T23:36:35.619Z,64.33
2018-03-03T23:39:03.384Z,62.87
2018-03-03T23:41:31.039Z,63.47
2018-03-03T23:43:58.697Z,67.20
2018-03-03T23:46:26.370Z,60.90
2018-03-03T23:48:54.036Z,61.30
2018-03-03T23:51:21.831Z,60.47
2018-03-03T23:53:49.521Z,56.07
2018-03-03T23:56:17.178Z,60.43
2018-03-03T23:58:44.861Z,57.43
